sensor_id;sensor_type;location;lat;lon;timestamp;P1;durP1;ratioP1;P2;durP2;ratioP2
5674;SDS011;2860;54.284;10.158;2022-12-01T00:00:08;138.10;;;52.00;;
5674;SDS011;2860;54.284;10.158;2022-12-01T00:02:34;122.65;;;50.10;;
5674;SDS011;2860;54.284;10.158;2022-12-01T00:04:59;138.45;;;50.45;;
5674;SDS011;2860;54.284;10.158;2022-12-01T00:07:26;125.25;;;47.10;;
5674;SDS011;2860;54.284;10.158;2022-12-01T00:09:51;131.20;;;48.95;;
5674;SDS011;2860;54.284;10.158;2022-12-01T00:12:35;134.25;;;49.15;;
5674;SDS011;2860;54.284;10.158;2022-12-01T00:15:07;126.47;;;50.60;;
5674;SDS011;2860;54.284;10.158;2022-12-01T00:17:34;140.20;;;50.70;;
5674;SDS011;2860;54.284;10.158;2022-12-01T00:19:59;116.90;;;46.40;;
5674;SDS011;2860;54.284;10.158;2022-12-01T00:22:25;133.48;;;52.83;;
5674;SDS011;2860;54.284;10.158;2022-12-01T00:24:50;129.98;;;49.22;;
5674;SDS011;2860;54.284;10.158;2022-12-01T00:27:16;130.77;;;49.13;;
5674;SDS011;2860;54.284;10.158;2022-12-01T00:29:41;122.70;;;47.67;;
5674;SDS011;2860;54.284;10.158;2022-12-01T00:32:07;123.18;;;47.63;;
5674;SDS011;2860;54.284;10.158;2022-12-01T00:34:32;131.18;;;49.17;;
5674;SDS011;2860;54.284;10.158;2022-12-01T00:36:59;127.45;;;47.88;;
5674;SDS011;2860;54.284;10.158;2022-12-01T00:39:24;128.05;;;48.03;;
5674;SDS011;2860;54.284;10.158;2022-12-01T00:41:50;110.50;;;46.15;;
5674;SDS011;2860;54.284;10.158;2022-12-01T00:44:15;118.65;;;46.00;;
5674;SDS011;2860;54.284;10.158;2022-12-01T00:46:41;127.63;;;47.22;;
5674;SDS011;2860;54.284;10.158;2022-12-01T00:49:08;123.57;;;46.72;;
5674;SDS011;2860;54.284;10.158;2022-12-01T00:51:36;123.97;;;47.28;;
5674;SDS011;2860;54.284;10.158;2022-12-01T00:54:02;128.02;;;48.67;;
5674;SDS011;2860;54.284;10.158;2022-12-01T00:56:27;114.97;;;46.08;;
5674;SDS011;2860;54.284;10.158;2022-12-01T00:58:53;114.05;;;44.90;;
5674;SDS011;2860;54.284;10.158;2022-12-01T01:01:18;131.23;;;49.05;;
5674;SDS011;2860;54.284;10.158;2022-12-01T01:03:44;136.13;;;49.97;;
5674;SDS011;2860;54.284;10.158;2022-12-01T01:06:10;126.32;;;48.30;;
5674;SDS011;2860;54.284;10.158;2022-12-01T01:08:36;116.80;;;46.35;;
5674;SDS011;2860;54.284;10.158;2022-12-01T01:11:03;112.45;;;45.72;;
5674;SDS011;2860;54.284;10.158;2022-12-01T01:13:29;124.93;;;44.42;;
5674;SDS011;2860;54.284;10.158;2022-12-01T01:16:03;119.85;;;45.83;;
5674;SDS011;2860;54.284;10.158;2022-12-01T01:18:30;109.63;;;45.58;;
5674;SDS011;2860;54.284;10.158;2022-12-01T01:20:57;115.45;;;46.35;;
5674;SDS011;2860;54.284;10.158;2022-12-01T01:23:24;121.43;;;47.38;;
5674;SDS011;2860;54.284;10.158;2022-12-01T01:25:50;123.03;;;45.25;;
5674;SDS011;2860;54.284;10.158;2022-12-01T01:28:16;113.35;;;47.97;;
5674;SDS011;2860;54.284;10.158;2022-12-01T01:30:42;110.88;;;43.03;;
5674;SDS011;2860;54.284;10.158;2022-12-01T01:33:08;116.93;;;46.05;;
5674;SDS011;2860;54.284;10.158;2022-12-01T01:35:34;103.07;;;43.70;;
5674;SDS011;2860;54.284;10.158;2022-12-01T01:37:59;114.32;;;45.03;;
5674;SDS011;2860;54.284;10.158;2022-12-01T01:40:25;117.40;;;46.75;;
5674;SDS011;2860;54.284;10.158;2022-12-01T01:42:50;126.57;;;45.75;;
5674;SDS011;2860;54.284;10.158;2022-12-01T01:45:18;110.20;;;44.05;;
5674;SDS011;2860;54.284;10.158;2022-12-01T01:47:48;106.10;;;42.92;;
5674;SDS011;2860;54.284;10.158;2022-12-01T01:50:17;120.53;;;43.83;;
5674;SDS011;2860;54.284;10.158;2022-12-01T01:52:50;110.00;;;42.75;;
5674;SDS011;2860;54.284;10.158;2022-12-01T01:55:23;113.00;;;45.55;;
5674;SDS011;2860;54.284;10.158;2022-12-01T01:57:48;116.10;;;45.70;;
5674;SDS011;2860;54.284;10.158;2022-12-01T02:00:16;120.65;;;45.33;;
5674;SDS011;2860;54.284;10.158;2022-12-01T02:02:43;114.13;;;44.85;;
5674;SDS011;2860;54.284;10.158;2022-12-01T02:05:11;107.20;;;43.10;;
5674;SDS011;2860;54.284;10.158;2022-12-01T02:07:54;113.65;;;42.53;;
5674;SDS011;2860;54.284;10.158;2022-12-01T02:10:23;117.60;;;45.80;;
5674;SDS011;2860;54.284;10.158;2022-12-01T02:18:50;116.32;;;43.17;;
5674;SDS011;2860;54.284;10.158;2022-12-01T02:27:07;99.97;;;39.60;;
5674;SDS011;2860;54.284;10.158;2022-12-01T02:29:59;116.47;;;41.55;;
5674;SDS011;2860;54.284;10.158;2022-12-01T02:43:39;94.43;;;38.78;;
5674;SDS011;2860;54.284;10.158;2022-12-01T02:46:14;105.93;;;41.17;;
5674;SDS011;2860;54.284;10.158;2022-12-01T02:48:47;98.40;;;41.40;;
5674;SDS011;2860;54.284;10.158;2022-12-01T02:51:20;99.47;;;41.20;;
5674;SDS011;2860;54.284;10.158;2022-12-01T02:53:53;106.18;;;39.53;;
5674;SDS011;2860;54.284;10.158;2022-12-01T02:56:20;110.10;;;39.95;;
5674;SDS011;2860;54.284;10.158;2022-12-01T02:58:47;112.75;;;42.28;;
5674;SDS011;2860;54.284;10.158;2022-12-01T03:01:15;106.93;;;40.67;;
5674;SDS011;2860;54.284;10.158;2022-12-01T03:04:11;114.78;;;40.70;;
5674;SDS011;2860;54.284;10.158;2022-12-01T03:09:52;92.85;;;39.17;;
5674;SDS011;2860;54.284;10.158;2022-12-01T03:12:28;95.05;;;39.28;;
5674;SDS011;2860;54.284;10.158;2022-12-01T03:15:13;94.93;;;38.75;;
5674;SDS011;2860;54.284;10.158;2022-12-01T03:17:46;98.65;;;38.63;;
5674;SDS011;2860;54.284;10.158;2022-12-01T03:20:22;105.80;;;39.90;;
5674;SDS011;2860;54.284;10.158;2022-12-01T03:22:55;99.13;;;39.90;;
5674;SDS011;2860;54.284;10.158;2022-12-01T03:25:25;100.85;;;40.75;;
5674;SDS011;2860;54.284;10.158;2022-12-01T03:27:53;87.53;;;38.20;;
5674;SDS011;2860;54.284;10.158;2022-12-01T03:30:22;97.60;;;38.17;;
5674;SDS011;2860;54.284;10.158;2022-12-01T03:32:50;90.50;;;37.40;;
5674;SDS011;2860;54.284;10.158;2022-12-01T03:35:25;112.50;;;41.78;;
5674;SDS011;2860;54.284;10.158;2022-12-01T03:37:59;96.55;;;40.35;;
5674;SDS011;2860;54.284;10.158;2022-12-01T03:40:28;102.03;;;39.75;;
5674;SDS011;2860;54.284;10.158;2022-12-01T03:42:57;105.55;;;40.30;;
5674;SDS011;2860;54.284;10.158;2022-12-01T03:45:33;107.72;;;41.75;;
5674;SDS011;2860;54.284;10.158;2022-12-01T03:48:07;98.40;;;39.47;;
5674;SDS011;2860;54.284;10.158;2022-12-01T03:50:35;96.60;;;37.30;;
5674;SDS011;2860;54.284;10.158;2022-12-01T03:53:15;101.47;;;40.40;;
5674;SDS011;2860;54.284;10.158;2022-12-01T03:55:44;100.60;;;39.67;;
5674;SDS011;2860;54.284;10.158;2022-12-01T03:58:18;97.53;;;39.45;;
5674;SDS011;2860;54.284;10.158;2022-12-01T04:00:47;93.35;;;38.08;;
5674;SDS011;2860;54.284;10.158;2022-12-01T04:03:17;90.32;;;39.10;;
5674;SDS011;2860;54.284;10.158;2022-12-01T04:05:46;111.45;;;41.65;;
5674;SDS011;2860;54.284;10.158;2022-12-01T04:08:12;100.72;;;39.33;;
5674;SDS011;2860;54.284;10.158;2022-12-01T04:10:37;95.65;;;39.70;;
5674;SDS011;2860;54.284;10.158;2022-12-01T04:13:03;88.53;;;38.70;;
5674;SDS011;2860;54.284;10.158;2022-12-01T04:15:28;95.35;;;40.70;;
5674;SDS011;2860;54.284;10.158;2022-12-01T04:17:57;102.00;;;40.78;;
5674;SDS011;2860;54.284;10.158;2022-12-01T04:20:46;107.15;;;39.35;;
5674;SDS011;2860;54.284;10.158;2022-12-01T04:23:13;116.88;;;42.38;;
5674;SDS011;2860;54.284;10.158;2022-12-01T04:26:02;107.97;;;40.50;;
5674;SDS011;2860;54.284;10.158;2022-12-01T04:28:29;112.28;;;43.85;;
5674;SDS011;2860;54.284;10.158;2022-12-01T04:30:54;100.20;;;40.08;;
5674;SDS011;2860;54.284;10.158;2022-12-01T04:33:20;117.25;;;41.65;;
5674;SDS011;2860;54.284;10.158;2022-12-01T04:35:54;116.22;;;42.90;;
5674;SDS011;2860;54.284;10.158;2022-12-01T04:38:20;111.15;;;40.85;;
5674;SDS011;2860;54.284;10.158;2022-12-01T04:40:46;109.93;;;43.03;;
5674;SDS011;2860;54.284;10.158;2022-12-01T04:43:11;120.05;;;42.50;;
5674;SDS011;2860;54.284;10.158;2022-12-01T04:45:37;112.22;;;43.53;;
5674;SDS011;2860;54.284;10.158;2022-12-01T04:48:02;116.82;;;45.13;;
5674;SDS011;2860;54.284;10.158;2022-12-01T04:50:29;108.30;;;39.83;;
5674;SDS011;2860;54.284;10.158;2022-12-01T04:52:54;118.82;;;43.88;;
5674;SDS011;2860;54.284;10.158;2022-12-01T04:55:20;111.47;;;43.28;;
5674;SDS011;2860;54.284;10.158;2022-12-01T04:57:46;121.97;;;46.10;;
5674;SDS011;2860;54.284;10.158;2022-12-01T05:00:12;114.03;;;43.17;;
5674;SDS011;2860;54.284;10.158;2022-12-01T05:02:38;115.65;;;43.45;;
5674;SDS011;2860;54.284;10.158;2022-12-01T05:05:08;135.05;;;46.53;;
5674;SDS011;2860;54.284;10.158;2022-12-01T05:07:37;113.18;;;41.95;;
5674;SDS011;2860;54.284;10.158;2022-12-01T05:10:04;107.82;;;41.97;;
5674;SDS011;2860;54.284;10.158;2022-12-01T05:12:30;119.40;;;45.85;;
5674;SDS011;2860;54.284;10.158;2022-12-01T05:14:55;118.88;;;43.17;;
5674;SDS011;2860;54.284;10.158;2022-12-01T05:17:21;121.38;;;45.25;;
5674;SDS011;2860;54.284;10.158;2022-12-01T05:19:46;130.18;;;45.40;;
5674;SDS011;2860;54.284;10.158;2022-12-01T05:22:31;106.07;;;43.10;;
5674;SDS011;2860;54.284;10.158;2022-12-01T05:24:57;110.32;;;41.80;;
5674;SDS011;2860;54.284;10.158;2022-12-01T05:27:23;111.55;;;41.80;;
5674;SDS011;2860;54.284;10.158;2022-12-01T05:29:49;131.80;;;43.83;;
5674;SDS011;2860;54.284;10.158;2022-12-01T05:32:14;120.68;;;44.00;;
5674;SDS011;2860;54.284;10.158;2022-12-01T05:34:40;109.00;;;41.92;;
5674;SDS011;2860;54.284;10.158;2022-12-01T05:37:05;116.93;;;45.20;;
5674;SDS011;2860;54.284;10.158;2022-12-01T05:39:31;109.85;;;40.53;;
5674;SDS011;2860;54.284;10.158;2022-12-01T05:41:57;112.57;;;43.25;;
5674;SDS011;2860;54.284;10.158;2022-12-01T05:44:23;96.45;;;41.58;;
5674;SDS011;2860;54.284;10.158;2022-12-01T05:46:48;102.63;;;41.53;;
5674;SDS011;2860;54.284;10.158;2022-12-01T05:49:13;98.07;;;41.30;;
5674;SDS011;2860;54.284;10.158;2022-12-01T05:51:39;106.55;;;41.00;;
5674;SDS011;2860;54.284;10.158;2022-12-01T05:54:06;106.03;;;41.40;;
5674;SDS011;2860;54.284;10.158;2022-12-01T05:56:32;103.07;;;40.50;;
5674;SDS011;2860;54.284;10.158;2022-12-01T05:58:57;100.75;;;41.75;;
5674;SDS011;2860;54.284;10.158;2022-12-01T06:01:23;108.60;;;41.97;;
5674;SDS011;2860;54.284;10.158;2022-12-01T06:03:48;120.68;;;41.88;;
5674;SDS011;2860;54.284;10.158;2022-12-01T06:06:14;107.93;;;43.72;;
5674;SDS011;2860;54.284;10.158;2022-12-01T06:08:39;106.97;;;42.40;;
5674;SDS011;2860;54.284;10.158;2022-12-01T06:11:05;110.55;;;41.65;;
5674;SDS011;2860;54.284;10.158;2022-12-01T06:13:30;113.28;;;40.78;;
5674;SDS011;2860;54.284;10.158;2022-12-01T06:15:59;106.30;;;40.33;;
5674;SDS011;2860;54.284;10.158;2022-12-01T06:18:28;107.22;;;41.90;;
5674;SDS011;2860;54.284;10.158;2022-12-01T06:20:55;98.65;;;41.10;;
5674;SDS011;2860;54.284;10.158;2022-12-01T06:23:20;107.20;;;39.33;;
5674;SDS011;2860;54.284;10.158;2022-12-01T06:25:46;106.40;;;41.65;;
5674;SDS011;2860;54.284;10.158;2022-12-01T06:28:12;92.22;;;39.72;;
5674;SDS011;2860;54.284;10.158;2022-12-01T06:30:38;89.95;;;39.30;;
5674;SDS011;2860;54.284;10.158;2022-12-01T06:33:03;104.15;;;38.63;;
5674;SDS011;2860;54.284;10.158;2022-12-01T06:35:29;99.72;;;38.55;;
5674;SDS011;2860;54.284;10.158;2022-12-01T06:37:54;99.72;;;38.85;;
5674;SDS011;2860;54.284;10.158;2022-12-01T06:40:20;94.85;;;41.25;;
5674;SDS011;2860;54.284;10.158;2022-12-01T06:42:46;90.47;;;39.15;;
5674;SDS011;2860;54.284;10.158;2022-12-01T06:45:11;102.50;;;40.60;;
5674;SDS011;2860;54.284;10.158;2022-12-01T06:47:37;100.15;;;39.67;;
5674;SDS011;2860;54.284;10.158;2022-12-01T06:50:03;96.57;;;40.25;;
5674;SDS011;2860;54.284;10.158;2022-12-01T06:52:32;98.88;;;41.38;;
5674;SDS011;2860;54.284;10.158;2022-12-01T06:54:58;102.85;;;42.45;;
5674;SDS011;2860;54.284;10.158;2022-12-01T06:57:24;113.50;;;42.97;;
5674;SDS011;2860;54.284;10.158;2022-12-01T06:59:50;101.15;;;40.97;;
5674;SDS011;2860;54.284;10.158;2022-12-01T07:02:15;104.65;;;43.33;;
5674;SDS011;2860;54.284;10.158;2022-12-01T07:04:41;106.35;;;40.05;;
5674;SDS011;2860;54.284;10.158;2022-12-01T07:07:06;114.45;;;42.50;;
5674;SDS011;2860;54.284;10.158;2022-12-01T07:09:32;112.85;;;42.22;;
5674;SDS011;2860;54.284;10.158;2022-12-01T07:11:58;108.90;;;41.63;;
5674;SDS011;2860;54.284;10.158;2022-12-01T07:14:24;110.07;;;42.83;;
5674;SDS011;2860;54.284;10.158;2022-12-01T07:16:50;119.47;;;43.75;;
5674;SDS011;2860;54.284;10.158;2022-12-01T07:19:16;133.53;;;56.13;;
5674;SDS011;2860;54.284;10.158;2022-12-01T07:21:42;115.53;;;44.08;;
5674;SDS011;2860;54.284;10.158;2022-12-01T07:24:07;107.22;;;41.65;;
5674;SDS011;2860;54.284;10.158;2022-12-01T07:26:33;121.30;;;43.22;;
5674;SDS011;2860;54.284;10.158;2022-12-01T07:28:59;117.47;;;42.95;;
5674;SDS011;2860;54.284;10.158;2022-12-01T07:31:24;105.97;;;40.20;;
5674;SDS011;2860;54.284;10.158;2022-12-01T07:33:50;113.03;;;44.22;;
5674;SDS011;2860;54.284;10.158;2022-12-01T07:36:16;111.82;;;44.00;;
5674;SDS011;2860;54.284;10.158;2022-12-01T07:38:42;118.55;;;43.17;;
5674;SDS011;2860;54.284;10.158;2022-12-01T07:41:08;114.45;;;41.22;;
5674;SDS011;2860;54.284;10.158;2022-12-01T07:43:36;121.07;;;43.88;;
5674;SDS011;2860;54.284;10.158;2022-12-01T07:46:03;114.53;;;45.22;;
5674;SDS011;2860;54.284;10.158;2022-12-01T07:48:32;127.28;;;45.03;;
5674;SDS011;2860;54.284;10.158;2022-12-01T07:50:58;124.05;;;43.30;;
5674;SDS011;2860;54.284;10.158;2022-12-01T07:53:24;122.03;;;43.72;;
5674;SDS011;2860;54.284;10.158;2022-12-01T07:55:49;120.10;;;45.63;;
5674;SDS011;2860;54.284;10.158;2022-12-01T07:58:15;119.88;;;44.90;;
5674;SDS011;2860;54.284;10.158;2022-12-01T08:00:41;111.75;;;42.90;;
5674;SDS011;2860;54.284;10.158;2022-12-01T08:03:06;118.35;;;44.10;;
5674;SDS011;2860;54.284;10.158;2022-12-01T08:05:32;121.38;;;44.42;;
5674;SDS011;2860;54.284;10.158;2022-12-01T08:07:57;121.22;;;44.13;;
5674;SDS011;2860;54.284;10.158;2022-12-01T08:10:23;119.63;;;43.70;;
5674;SDS011;2860;54.284;10.158;2022-12-01T08:12:48;124.03;;;45.92;;
5674;SDS011;2860;54.284;10.158;2022-12-01T08:15:14;118.55;;;45.53;;
5674;SDS011;2860;54.284;10.158;2022-12-01T08:17:39;124.68;;;45.60;;
5674;SDS011;2860;54.284;10.158;2022-12-01T08:20:05;119.55;;;45.38;;
5674;SDS011;2860;54.284;10.158;2022-12-01T08:22:31;112.63;;;42.72;;
5674;SDS011;2860;54.284;10.158;2022-12-01T08:24:57;113.95;;;41.65;;
5674;SDS011;2860;54.284;10.158;2022-12-01T08:27:23;113.82;;;43.17;;
5674;SDS011;2860;54.284;10.158;2022-12-01T08:29:48;116.93;;;43.40;;
5674;SDS011;2860;54.284;10.158;2022-12-01T08:32:15;114.85;;;42.47;;
5674;SDS011;2860;54.284;10.158;2022-12-01T08:34:41;120.95;;;44.83;;
5674;SDS011;2860;54.284;10.158;2022-12-01T08:37:06;113.03;;;44.40;;
5674;SDS011;2860;54.284;10.158;2022-12-01T08:39:32;104.57;;;41.42;;
5674;SDS011;2860;54.284;10.158;2022-12-01T08:41:58;123.30;;;43.20;;
5674;SDS011;2860;54.284;10.158;2022-12-01T08:44:23;107.00;;;43.03;;
5674;SDS011;2860;54.284;10.158;2022-12-01T08:46:49;121.38;;;43.88;;
5674;SDS011;2860;54.284;10.158;2022-12-01T08:49:14;117.93;;;44.17;;
5674;SDS011;2860;54.284;10.158;2022-12-01T08:51:40;110.38;;;43.60;;
5674;SDS011;2860;54.284;10.158;2022-12-01T08:54:05;104.40;;;41.53;;
5674;SDS011;2860;54.284;10.158;2022-12-01T08:56:35;103.68;;;41.08;;
5674;SDS011;2860;54.284;10.158;2022-12-01T08:59:03;105.75;;;41.92;;
5674;SDS011;2860;54.284;10.158;2022-12-01T09:01:29;118.65;;;42.28;;
5674;SDS011;2860;54.284;10.158;2022-12-01T09:03:57;103.18;;;42.90;;
5674;SDS011;2860;54.284;10.158;2022-12-01T09:06:39;105.35;;;42.13;;
5674;SDS011;2860;54.284;10.158;2022-12-01T09:09:06;103.78;;;41.10;;
5674;SDS011;2860;54.284;10.158;2022-12-01T09:11:33;103.80;;;40.90;;
5674;SDS011;2860;54.284;10.158;2022-12-01T09:13:58;114.28;;;44.70;;
5674;SDS011;2860;54.284;10.158;2022-12-01T09:16:27;97.35;;;41.50;;
5674;SDS011;2860;54.284;10.158;2022-12-01T09:18:53;115.80;;;41.22;;
5674;SDS011;2860;54.284;10.158;2022-12-01T09:21:20;97.80;;;39.67;;
5674;SDS011;2860;54.284;10.158;2022-12-01T09:23:47;106.00;;;40.63;;
5674;SDS011;2860;54.284;10.158;2022-12-01T09:26:13;115.60;;;41.28;;
5674;SDS011;2860;54.284;10.158;2022-12-01T09:28:42;101.70;;;40.90;;
5674;SDS011;2860;54.284;10.158;2022-12-01T09:31:09;106.63;;;40.58;;
5674;SDS011;2860;54.284;10.158;2022-12-01T09:33:36;107.18;;;42.08;;
5674;SDS011;2860;54.284;10.158;2022-12-01T09:36:03;95.50;;;39.92;;
5674;SDS011;2860;54.284;10.158;2022-12-01T09:38:29;101.32;;;38.80;;
5674;SDS011;2860;54.284;10.158;2022-12-01T09:40:58;102.95;;;40.75;;
5674;SDS011;2860;54.284;10.158;2022-12-01T09:43:28;106.72;;;40.22;;
5674;SDS011;2860;54.284;10.158;2022-12-01T09:46:08;93.85;;;38.50;;
5674;SDS011;2860;54.284;10.158;2022-12-01T09:48:43;94.30;;;35.97;;
5674;SDS011;2860;54.284;10.158;2022-12-01T09:51:11;97.32;;;38.95;;
5674;SDS011;2860;54.284;10.158;2022-12-01T09:53:39;99.68;;;37.38;;
5674;SDS011;2860;54.284;10.158;2022-12-01T09:56:05;93.82;;;37.10;;
5674;SDS011;2860;54.284;10.158;2022-12-01T09:58:41;114.00;;;40.78;;
5674;SDS011;2860;54.284;10.158;2022-12-01T10:01:09;117.97;;;40.88;;
5674;SDS011;2860;54.284;10.158;2022-12-01T10:03:42;116.28;;;38.38;;
5674;SDS011;2860;54.284;10.158;2022-12-01T10:06:19;118.05;;;42.05;;
5674;SDS011;2860;54.284;10.158;2022-12-01T10:09:01;102.93;;;39.00;;
5674;SDS011;2860;54.284;10.158;2022-12-01T10:11:38;107.43;;;40.13;;
5674;SDS011;2860;54.284;10.158;2022-12-01T10:14:08;101.93;;;39.40;;
5674;SDS011;2860;54.284;10.158;2022-12-01T10:16:45;105.78;;;38.65;;
5674;SDS011;2860;54.284;10.158;2022-12-01T10:20:02;100.45;;;38.33;;
5674;SDS011;2860;54.284;10.158;2022-12-01T10:22:44;104.68;;;37.78;;
5674;SDS011;2860;54.284;10.158;2022-12-01T10:27:59;114.72;;;37.28;;
5674;SDS011;2860;54.284;10.158;2022-12-01T10:30:56;105.38;;;38.47;;
5674;SDS011;2860;54.284;10.158;2022-12-01T10:33:34;102.00;;;37.10;;
5674;SDS011;2860;54.284;10.158;2022-12-01T10:36:10;105.75;;;38.30;;
5674;SDS011;2860;54.284;10.158;2022-12-01T10:38:36;99.18;;;36.55;;
5674;SDS011;2860;54.284;10.158;2022-12-01T10:41:03;104.22;;;38.13;;
5674;SDS011;2860;54.284;10.158;2022-12-01T10:43:40;107.43;;;37.08;;
5674;SDS011;2860;54.284;10.158;2022-12-01T10:46:32;107.57;;;38.38;;
5674;SDS011;2860;54.284;10.158;2022-12-01T10:49:08;89.28;;;37.10;;
5674;SDS011;2860;54.284;10.158;2022-12-01T10:54:32;95.78;;;36.22;;
5674;SDS011;2860;54.284;10.158;2022-12-01T10:57:05;104.13;;;36.63;;
5674;SDS011;2860;54.284;10.158;2022-12-01T10:59:43;95.25;;;36.20;;
5674;SDS011;2860;54.284;10.158;2022-12-01T11:02:20;98.22;;;35.78;;
5674;SDS011;2860;54.284;10.158;2022-12-01T11:07:26;105.13;;;35.90;;
5674;SDS011;2860;54.284;10.158;2022-12-01T11:12:54;101.32;;;35.42;;
5674;SDS011;2860;54.284;10.158;2022-12-01T11:15:37;103.78;;;36.90;;
5674;SDS011;2860;54.284;10.158;2022-12-01T11:18:27;108.88;;;35.08;;
5674;SDS011;2860;54.284;10.158;2022-12-01T11:21:24;102.25;;;36.72;;
5674;SDS011;2860;54.284;10.158;2022-12-01T11:23:52;79.95;;;32.35;;
5674;SDS011;2860;54.284;10.158;2022-12-01T11:26:20;100.22;;;34.85;;
5674;SDS011;2860;54.284;10.158;2022-12-01T11:29:20;106.22;;;35.47;;
5674;SDS011;2860;54.284;10.158;2022-12-01T11:31:54;94.00;;;32.97;;
5674;SDS011;2860;54.284;10.158;2022-12-01T11:36:54;93.05;;;33.65;;
5674;SDS011;2860;54.284;10.158;2022-12-01T11:39:32;97.80;;;35.47;;
5674;SDS011;2860;54.284;10.158;2022-12-01T11:42:14;94.38;;;34.60;;
5674;SDS011;2860;54.284;10.158;2022-12-01T11:44:50;97.55;;;34.83;;
5674;SDS011;2860;54.284;10.158;2022-12-01T11:47:19;106.85;;;36.10;;
5674;SDS011;2860;54.284;10.158;2022-12-01T11:50:21;106.18;;;35.30;;
5674;SDS011;2860;54.284;10.158;2022-12-01T11:52:49;90.32;;;33.63;;
5674;SDS011;2860;54.284;10.158;2022-12-01T11:57:44;98.50;;;30.88;;
5674;SDS011;2860;54.284;10.158;2022-12-01T12:00:13;84.43;;;30.45;;
5674;SDS011;2860;54.284;10.158;2022-12-01T12:08:31;85.97;;;32.50;;
5674;SDS011;2860;54.284;10.158;2022-12-01T12:11:18;79.13;;;29.23;;
5674;SDS011;2860;54.284;10.158;2022-12-01T12:14:09;76.60;;;31.77;;
5674;SDS011;2860;54.284;10.158;2022-12-01T12:25:04;84.35;;;29.77;;
5674;SDS011;2860;54.284;10.158;2022-12-01T12:27:52;69.32;;;30.08;;
5674;SDS011;2860;54.284;10.158;2022-12-01T12:30:28;73.00;;;25.52;;
5674;SDS011;2860;54.284;10.158;2022-12-01T12:38:28;60.33;;;26.23;;
5674;SDS011;2860;54.284;10.158;2022-12-01T12:41:26;71.75;;;28.30;;
5674;SDS011;2860;54.284;10.158;2022-12-01T12:44:15;61.83;;;26.45;;
5674;SDS011;2860;54.284;10.158;2022-12-01T12:50:08;78.47;;;28.63;;
5674;SDS011;2860;54.284;10.158;2022-12-01T12:52:48;70.88;;;29.55;;
5674;SDS011;2860;54.284;10.158;2022-12-01T12:55:22;67.45;;;28.15;;
5674;SDS011;2860;54.284;10.158;2022-12-01T12:57:53;61.88;;;29.17;;
5674;SDS011;2860;54.284;10.158;2022-12-01T13:00:25;79.70;;;29.15;;
5674;SDS011;2860;54.284;10.158;2022-12-01T13:05:39;58.40;;;27.02;;
5674;SDS011;2860;54.284;10.158;2022-12-01T13:08:20;66.60;;;26.70;;
5674;SDS011;2860;54.284;10.158;2022-12-01T13:10:54;67.82;;;25.95;;
5674;SDS011;2860;54.284;10.158;2022-12-01T13:16:48;71.38;;;26.35;;
5674;SDS011;2860;54.284;10.158;2022-12-01T13:19:28;61.55;;;26.58;;
5674;SDS011;2860;54.284;10.158;2022-12-01T13:21:59;64.80;;;28.02;;
5674;SDS011;2860;54.284;10.158;2022-12-01T13:24:26;65.07;;;29.63;;
5674;SDS011;2860;54.284;10.158;2022-12-01T13:26:58;64.32;;;26.17;;
5674;SDS011;2860;54.284;10.158;2022-12-01T13:29:31;63.47;;;27.10;;
5674;SDS011;2860;54.284;10.158;2022-12-01T13:31:59;58.60;;;24.48;;
5674;SDS011;2860;54.284;10.158;2022-12-01T13:36:57;63.72;;;28.73;;
5674;SDS011;2860;54.284;10.158;2022-12-01T13:39:23;68.38;;;25.95;;
5674;SDS011;2860;54.284;10.158;2022-12-01T13:45:14;57.35;;;26.33;;
5674;SDS011;2860;54.284;10.158;2022-12-01T13:47:30;58.00;;;27.20;;
5674;SDS011;2860;54.284;10.158;2022-12-01T14:03:50;66.85;;;27.08;;
5674;SDS011;2860;54.284;10.158;2022-12-01T14:09:05;68.00;;;26.25;;
5674;SDS011;2860;54.284;10.158;2022-12-01T14:11:39;54.67;;;24.08;;
5674;SDS011;2860;54.284;10.158;2022-12-01T14:14:18;61.90;;;25.17;;
5674;SDS011;2860;54.284;10.158;2022-12-01T14:22:01;67.15;;;27.60;;
5674;SDS011;2860;54.284;10.158;2022-12-01T14:24:39;61.78;;;27.17;;
5674;SDS011;2860;54.284;10.158;2022-12-01T14:27:07;71.57;;;26.77;;
5674;SDS011;2860;54.284;10.158;2022-12-01T14:29:36;67.00;;;27.38;;
5674;SDS011;2860;54.284;10.158;2022-12-01T14:34:32;66.10;;;27.45;;
5674;SDS011;2860;54.284;10.158;2022-12-01T14:39:34;69.13;;;26.73;;
5674;SDS011;2860;54.284;10.158;2022-12-01T14:42:04;72.93;;;26.65;;
5674;SDS011;2860;54.284;10.158;2022-12-01T14:54:59;75.13;;;30.25;;
5674;SDS011;2860;54.284;10.158;2022-12-01T14:57:32;82.82;;;27.92;;
5674;SDS011;2860;54.284;10.158;2022-12-01T15:00:05;68.35;;;28.73;;
5674;SDS011;2860;54.284;10.158;2022-12-01T15:02:31;63.10;;;26.38;;
5674;SDS011;2860;54.284;10.158;2022-12-01T15:05:07;73.97;;;27.58;;
5674;SDS011;2860;54.284;10.158;2022-12-01T15:07:36;62.85;;;26.65;;
5674;SDS011;2860;54.284;10.158;2022-12-01T15:10:13;64.45;;;27.05;;
5674;SDS011;2860;54.284;10.158;2022-12-01T15:12:47;58.58;;;27.33;;
5674;SDS011;2860;54.284;10.158;2022-12-01T15:15:15;66.22;;;27.63;;
5674;SDS011;2860;54.284;10.158;2022-12-01T15:17:41;62.97;;;26.30;;
5674;SDS011;2860;54.284;10.158;2022-12-01T15:20:27;66.70;;;27.17;;
5674;SDS011;2860;54.284;10.158;2022-12-01T15:22:57;63.80;;;26.73;;
5674;SDS011;2860;54.284;10.158;2022-12-01T15:25:26;72.72;;;28.65;;
5674;SDS011;2860;54.284;10.158;2022-12-01T15:30:41;71.43;;;28.55;;
5674;SDS011;2860;54.284;10.158;2022-12-01T15:33:29;85.50;;;38.30;;
5674;SDS011;2860;54.284;10.158;2022-12-01T15:35:57;81.07;;;31.30;;
5674;SDS011;2860;54.284;10.158;2022-12-01T15:38:26;79.43;;;29.52;;
5674;SDS011;2860;54.284;10.158;2022-12-01T15:40:54;72.97;;;27.67;;
5674;SDS011;2860;54.284;10.158;2022-12-01T15:43:31;69.82;;;29.10;;
5674;SDS011;2860;54.284;10.158;2022-12-01T15:46:11;68.20;;;28.90;;
5674;SDS011;2860;54.284;10.158;2022-12-01T15:48:38;68.35;;;26.98;;
5674;SDS011;2860;54.284;10.158;2022-12-01T15:51:05;75.10;;;28.35;;
5674;SDS011;2860;54.284;10.158;2022-12-01T15:53:44;65.50;;;27.13;;
5674;SDS011;2860;54.284;10.158;2022-12-01T15:56:14;76.60;;;27.05;;
5674;SDS011;2860;54.284;10.158;2022-12-01T15:58:47;78.57;;;28.48;;
5674;SDS011;2860;54.284;10.158;2022-12-01T16:01:13;63.22;;;28.05;;
5674;SDS011;2860;54.284;10.158;2022-12-01T16:03:52;67.60;;;26.98;;
5674;SDS011;2860;54.284;10.158;2022-12-01T16:06:21;67.78;;;25.67;;
5674;SDS011;2860;54.284;10.158;2022-12-01T16:08:56;71.93;;;28.08;;
5674;SDS011;2860;54.284;10.158;2022-12-01T16:11:24;66.40;;;26.15;;
5674;SDS011;2860;54.284;10.158;2022-12-01T16:14:00;69.63;;;27.02;;
5674;SDS011;2860;54.284;10.158;2022-12-01T16:19:19;64.45;;;27.70;;
5674;SDS011;2860;54.284;10.158;2022-12-01T16:21:49;64.60;;;27.17;;
5674;SDS011;2860;54.284;10.158;2022-12-01T16:24:19;62.58;;;27.73;;
5674;SDS011;2860;54.284;10.158;2022-12-01T16:26:56;64.70;;;26.80;;
5674;SDS011;2860;54.284;10.158;2022-12-01T16:29:23;65.68;;;27.23;;
5674;SDS011;2860;54.284;10.158;2022-12-01T16:31:54;76.28;;;27.83;;
5674;SDS011;2860;54.284;10.158;2022-12-01T16:34:22;73.65;;;28.08;;
5674;SDS011;2860;54.284;10.158;2022-12-01T16:36:48;63.65;;;27.30;;
5674;SDS011;2860;54.284;10.158;2022-12-01T16:39:14;70.68;;;28.17;;
5674;SDS011;2860;54.284;10.158;2022-12-01T16:41:40;69.25;;;26.58;;